sensor_id;sensor_type;location;lat;lon;timestamp;P1;durP1;ratioP1;P2;durP2;ratioP2
57599;SDS011;43426;43.594;24.334;2023-03-23T00:01:13;196.55;;;44.28;;
57599;SDS011;43426;43.594;24.334;2023-03-23T00:03:40;150.65;;;48.17;;
57599;SDS011;43426;43.594;24.334;2023-03-23T00:06:06;146.82;;;46.25;;
57599;SDS011;43426;43.594;24.334;2023-03-23T00:08:33;302.42;;;58.08;;
57599;SDS011;43426;43.594;24.334;2023-03-23T00:11:03;362.63;;;54.92;;
57599;SDS011;43426;43.594;24.334;2023-03-23T00:13:29;127.22;;;43.17;;
57599;SDS011;43426;43.594;24.334;2023-03-23T00:15:55;137.07;;;42.83;;
57599;SDS011;43426;43.594;24.334;2023-03-23T00:18:25;139.80;;;40.13;;
57599;SDS011;43426;43.594;24.334;2023-03-23T00:20:59;142.90;;;41.88;;
57599;SDS011;43426;43.594;24.334;2023-03-23T00:23:25;166.73;;;40.05;;
57599;SDS011;43426;43.594;24.334;2023-03-23T00:25:54;157.88;;;38.85;;
57599;SDS011;43426;43.594;24.334;2023-03-23T00:28:24;216.88;;;36.30;;
57599;SDS011;43426;43.594;24.334;2023-03-23T00:31:09;171.75;;;34.10;;
57599;SDS011;43426;43.594;24.334;2023-03-23T00:33:36;134.60;;;31.60;;
57599;SDS011;43426;43.594;24.334;2023-03-23T00:36:08;205.13;;;39.65;;
57599;SDS011;43426;43.594;24.334;2023-03-23T00:38:35;125.40;;;36.70;;
57599;SDS011;43426;43.594;24.334;2023-03-23T00:41:01;173.68;;;32.85;;
57599;SDS011;43426;43.594;24.334;2023-03-23T00:45:54;143.47;;;35.33;;
57599;SDS011;43426;43.594;24.334;2023-03-23T00:48:20;147.05;;;32.55;;
57599;SDS011;43426;43.594;24.334;2023-03-23T00:50:46;192.88;;;40.20;;
57599;SDS011;43426;43.594;24.334;2023-03-23T00:53:12;163.80;;;37.38;;
57599;SDS011;43426;43.594;24.334;2023-03-23T00:55:37;144.77;;;34.65;;
57599;SDS011;43426;43.594;24.334;2023-03-23T00:58:04;189.02;;;38.25;;
57599;SDS011;43426;43.594;24.334;2023-03-23T01:00:30;115.20;;;34.33;;
57599;SDS011;43426;43.594;24.334;2023-03-23T01:02:56;270.13;;;38.88;;
57599;SDS011;43426;43.594;24.334;2023-03-23T01:05:21;221.00;;;36.28;;
57599;SDS011;43426;43.594;24.334;2023-03-23T01:07:46;234.90;;;40.87;;
57599;SDS011;43426;43.594;24.334;2023-03-23T01:12:45;222.50;;;38.40;;
57599;SDS011;43426;43.594;24.334;2023-03-23T01:15:15;225.27;;;39.38;;
57599;SDS011;43426;43.594;24.334;2023-03-23T01:17:42;162.05;;;40.35;;
57599;SDS011;43426;43.594;24.334;2023-03-23T01:20:09;177.48;;;38.78;;
57599;SDS011;43426;43.594;24.334;2023-03-23T01:22:36;178.38;;;40.67;;
57599;SDS011;43426;43.594;24.334;2023-03-23T01:27:27;181.55;;;38.15;;
57599;SDS011;43426;43.594;24.334;2023-03-23T01:29:53;176.05;;;38.65;;
57599;SDS011;43426;43.594;24.334;2023-03-23T01:32:18;146.30;;;36.83;;
57599;SDS011;43426;43.594;24.334;2023-03-23T01:34:43;128.07;;;34.07;;
57599;SDS011;43426;43.594;24.334;2023-03-23T01:37:09;177.03;;;36.67;;
57599;SDS011;43426;43.594;24.334;2023-03-23T01:39:37;155.03;;;36.20;;
57599;SDS011;43426;43.594;24.334;2023-03-23T01:42:03;320.80;;;38.88;;
57599;SDS011;43426;43.594;24.334;2023-03-23T01:46:57;160.57;;;36.00;;
57599;SDS011;43426;43.594;24.334;2023-03-23T01:49:25;114.60;;;33.25;;
57599;SDS011;43426;43.594;24.334;2023-03-23T01:54:55;156.15;;;32.40;;
57599;SDS011;43426;43.594;24.334;2023-03-23T01:57:23;192.15;;;34.05;;
57599;SDS011;43426;43.594;24.334;2023-03-23T01:59:54;233.73;;;38.45;;
57599;SDS011;43426;43.594;24.334;2023-03-23T02:02:23;226.57;;;37.67;;
57599;SDS011;43426;43.594;24.334;2023-03-23T02:04:50;313.70;;;39.58;;
57599;SDS011;43426;43.594;24.334;2023-03-23T02:07:17;198.85;;;34.30;;
57599;SDS011;43426;43.594;24.334;2023-03-23T02:09:45;215.20;;;32.67;;
57599;SDS011;43426;43.594;24.334;2023-03-23T02:12:10;216.27;;;32.35;;
57599;SDS011;43426;43.594;24.334;2023-03-23T02:14:36;160.13;;;37.45;;
57599;SDS011;43426;43.594;24.334;2023-03-23T02:17:07;197.63;;;35.40;;
57599;SDS011;43426;43.594;24.334;2023-03-23T02:25:58;132.23;;;34.33;;
57599;SDS011;43426;43.594;24.334;2023-03-23T02:28:39;209.52;;;36.13;;
57599;SDS011;43426;43.594;24.334;2023-03-23T02:36:52;70.03;;;31.55;;
57599;SDS011;43426;43.594;24.334;2023-03-23T02:39:37;57.30;;;34.70;;
57599;SDS011;43426;43.594;24.334;2023-03-23T02:42:10;65.65;;;31.67;;
57599;SDS011;43426;43.594;24.334;2023-03-23T02:44:40;213.93;;;35.30;;
57599;SDS011;43426;43.594;24.334;2023-03-23T02:47:17;186.20;;;35.70;;
57599;SDS011;43426;43.594;24.334;2023-03-23T02:49:50;59.67;;;32.22;;
57599;SDS011;43426;43.594;24.334;2023-03-23T02:52:19;72.60;;;34.10;;
57599;SDS011;43426;43.594;24.334;2023-03-23T02:54:49;58.85;;;32.30;;
57599;SDS011;43426;43.594;24.334;2023-03-23T02:57:18;74.10;;;32.92;;
57599;SDS011;43426;43.594;24.334;2023-03-23T02:59:45;231.10;;;35.65;;
57599;SDS011;43426;43.594;24.334;2023-03-23T03:02:12;53.72;;;30.25;;
57599;SDS011;43426;43.594;24.334;2023-03-23T03:04:45;55.08;;;32.13;;
57599;SDS011;43426;43.594;24.334;2023-03-23T03:14:52;57.88;;;32.45;;
57599;SDS011;43426;43.594;24.334;2023-03-23T03:17:32;57.30;;;33.25;;
57599;SDS011;43426;43.594;24.334;2023-03-23T03:20:04;54.65;;;33.90;;
57599;SDS011;43426;43.594;24.334;2023-03-23T03:22:37;56.33;;;31.27;;
57599;SDS011;43426;43.594;24.334;2023-03-23T03:25:07;47.40;;;31.17;;
57599;SDS011;43426;43.594;24.334;2023-03-23T03:27:34;51.38;;;31.85;;
57599;SDS011;43426;43.594;24.334;2023-03-23T03:30:01;53.88;;;33.10;;
57599;SDS011;43426;43.594;24.334;2023-03-23T03:32:41;51.35;;;32.88;;
57599;SDS011;43426;43.594;24.334;2023-03-23T03:35:11;73.20;;;32.40;;
57599;SDS011;43426;43.594;24.334;2023-03-23T03:37:38;59.40;;;32.55;;
57599;SDS011;43426;43.594;24.334;2023-03-23T03:40:09;58.15;;;33.83;;
57599;SDS011;43426;43.594;24.334;2023-03-23T03:42:46;56.75;;;33.85;;
57599;SDS011;43426;43.594;24.334;2023-03-23T03:45:13;111.57;;;33.38;;
57599;SDS011;43426;43.594;24.334;2023-03-23T03:47:40;54.58;;;32.35;;
57599;SDS011;43426;43.594;24.334;2023-03-23T03:50:06;56.95;;;32.15;;
57599;SDS011;43426;43.594;24.334;2023-03-23T03:52:32;96.13;;;32.55;;
57599;SDS011;43426;43.594;24.334;2023-03-23T03:54:58;49.10;;;31.60;;
57599;SDS011;43426;43.594;24.334;2023-03-23T03:57:23;99.55;;;32.17;;
57599;SDS011;43426;43.594;24.334;2023-03-23T03:59:49;51.67;;;29.95;;
57599;SDS011;43426;43.594;24.334;2023-03-23T04:02:15;44.47;;;30.17;;
57599;SDS011;43426;43.594;24.334;2023-03-23T04:04:45;76.60;;;31.08;;
57599;SDS011;43426;43.594;24.334;2023-03-23T04:07:11;60.92;;;33.53;;
57599;SDS011;43426;43.594;24.334;2023-03-23T04:09:38;77.10;;;32.78;;
57599;SDS011;43426;43.594;24.334;2023-03-23T04:12:11;68.07;;;34.25;;
57599;SDS011;43426;43.594;24.334;2023-03-23T04:14:38;52.05;;;32.70;;
57599;SDS011;43426;43.594;24.334;2023-03-23T04:17:03;81.30;;;33.72;;
57599;SDS011;43426;43.594;24.334;2023-03-23T04:19:28;54.60;;;33.38;;
57599;SDS011;43426;43.594;24.334;2023-03-23T04:21:58;63.47;;;35.40;;
57599;SDS011;43426;43.594;24.334;2023-03-23T04:24:24;61.88;;;35.75;;
57599;SDS011;43426;43.594;24.334;2023-03-23T04:26:50;53.90;;;34.28;;
57599;SDS011;43426;43.594;24.334;2023-03-23T04:29:19;57.13;;;35.33;;
57599;SDS011;43426;43.594;24.334;2023-03-23T04:31:45;51.85;;;31.83;;
57599;SDS011;43426;43.594;24.334;2023-03-23T04:34:11;65.38;;;33.90;;
57599;SDS011;43426;43.594;24.334;2023-03-23T04:36:40;54.78;;;34.22;;
57599;SDS011;43426;43.594;24.334;2023-03-23T04:39:05;80.82;;;35.95;;
57599;SDS011;43426;43.594;24.334;2023-03-23T04:41:34;64.88;;;34.13;;
57599;SDS011;43426;43.594;24.334;2023-03-23T04:44:00;77.47;;;35.20;;
57599;SDS011;43426;43.594;24.334;2023-03-23T04:46:29;64.68;;;36.72;;
57599;SDS011;43426;43.594;24.334;2023-03-23T04:48:55;60.25;;;35.30;;
57599;SDS011;43426;43.594;24.334;2023-03-23T04:51:23;62.15;;;38.28;;
57599;SDS011;43426;43.594;24.334;2023-03-23T04:53:49;72.35;;;41.15;;
57599;SDS011;43426;43.594;24.334;2023-03-23T04:56:15;64.78;;;39.40;;
57599;SDS011;43426;43.594;24.334;2023-03-23T04:58:41;82.70;;;41.97;;
57599;SDS011;43426;43.594;24.334;2023-03-23T05:01:08;73.03;;;40.90;;
57599;SDS011;43426;43.594;24.334;2023-03-23T05:03:34;75.60;;;40.13;;
57599;SDS011;43426;43.594;24.334;2023-03-23T05:06:01;73.40;;;41.28;;
57599;SDS011;43426;43.594;24.334;2023-03-23T05:08:27;96.78;;;40.80;;
57599;SDS011;43426;43.594;24.334;2023-03-23T05:10:54;106.22;;;42.28;;
57599;SDS011;43426;43.594;24.334;2023-03-23T05:13:21;98.60;;;40.88;;
57599;SDS011;43426;43.594;24.334;2023-03-23T05:15:47;115.85;;;42.63;;
57599;SDS011;43426;43.594;24.334;2023-03-23T05:18:13;84.47;;;40.08;;
57599;SDS011;43426;43.594;24.334;2023-03-23T05:20:39;63.70;;;37.10;;
57599;SDS011;43426;43.594;24.334;2023-03-23T05:23:07;132.45;;;40.42;;
57599;SDS011;43426;43.594;24.334;2023-03-23T05:25:33;88.30;;;37.65;;
57599;SDS011;43426;43.594;24.334;2023-03-23T05:28:02;77.90;;;38.30;;
57599;SDS011;43426;43.594;24.334;2023-03-23T05:30:28;72.22;;;38.70;;
57599;SDS011;43426;43.594;24.334;2023-03-23T05:32:54;154.63;;;47.95;;
57599;SDS011;43426;43.594;24.334;2023-03-23T05:35:20;148.77;;;46.85;;
57599;SDS011;43426;43.594;24.334;2023-03-23T05:37:46;136.88;;;46.22;;
57599;SDS011;43426;43.594;24.334;2023-03-23T05:40:12;156.57;;;49.00;;
57599;SDS011;43426;43.594;24.334;2023-03-23T05:42:38;271.35;;;47.75;;
57599;SDS011;43426;43.594;24.334;2023-03-23T05:45:10;118.20;;;40.55;;
57599;SDS011;43426;43.594;24.334;2023-03-23T05:47:37;156.68;;;43.60;;
57599;SDS011;43426;43.594;24.334;2023-03-23T05:50:05;143.63;;;42.08;;
57599;SDS011;43426;43.594;24.334;2023-03-23T05:52:34;192.57;;;43.70;;
57599;SDS011;43426;43.594;24.334;2023-03-23T05:55:00;83.40;;;40.33;;
57599;SDS011;43426;43.594;24.334;2023-03-23T05:57:26;84.72;;;40.58;;
57599;SDS011;43426;43.594;24.334;2023-03-23T05:59:52;262.13;;;44.83;;
57599;SDS011;43426;43.594;24.334;2023-03-23T06:02:18;75.15;;;41.55;;
57599;SDS011;43426;43.594;24.334;2023-03-23T06:04:43;84.80;;;39.85;;
57599;SDS011;43426;43.594;24.334;2023-03-23T06:07:09;96.50;;;39.10;;
57599;SDS011;43426;43.594;24.334;2023-03-23T06:09:38;87.28;;;39.25;;
57599;SDS011;43426;43.594;24.334;2023-03-23T06:12:05;92.18;;;37.67;;
57599;SDS011;43426;43.594;24.334;2023-03-23T06:14:31;65.88;;;35.03;;
57599;SDS011;43426;43.594;24.334;2023-03-23T06:16:57;67.75;;;35.00;;
57599;SDS011;43426;43.594;24.334;2023-03-23T06:19:22;88.28;;;33.50;;
57599;SDS011;43426;43.594;24.334;2023-03-23T06:21:48;143.82;;;30.83;;
57599;SDS011;43426;43.594;24.334;2023-03-23T06:24:14;112.85;;;31.85;;
57599;SDS011;43426;43.594;24.334;2023-03-23T06:26:39;50.30;;;31.58;;
57599;SDS011;43426;43.594;24.334;2023-03-23T06:29:09;62.42;;;33.22;;
57599;SDS011;43426;43.594;24.334;2023-03-23T06:31:38;53.67;;;30.13;;
57599;SDS011;43426;43.594;24.334;2023-03-23T06:34:07;69.88;;;29.65;;
57599;SDS011;43426;43.594;24.334;2023-03-23T06:36:34;67.63;;;30.02;;
57599;SDS011;43426;43.594;24.334;2023-03-23T06:41:25;63.45;;;30.35;;
57599;SDS011;43426;43.594;24.334;2023-03-23T06:43:50;55.58;;;33.58;;
57599;SDS011;43426;43.594;24.334;2023-03-23T06:46:16;57.35;;;35.88;;
57599;SDS011;43426;43.594;24.334;2023-03-23T06:48:42;66.88;;;37.83;;
57599;SDS011;43426;43.594;24.334;2023-03-23T06:51:07;73.10;;;39.00;;
57599;SDS011;43426;43.594;24.334;2023-03-23T06:53:33;77.15;;;39.78;;
57599;SDS011;43426;43.594;24.334;2023-03-23T06:55:58;85.53;;;45.55;;
57599;SDS011;43426;43.594;24.334;2023-03-23T06:58:24;72.93;;;41.45;;
57599;SDS011;43426;43.594;24.334;2023-03-23T07:00:56;56.90;;;35.33;;
57599;SDS011;43426;43.594;24.334;2023-03-23T07:03:22;52.20;;;34.30;;
57599;SDS011;43426;43.594;24.334;2023-03-23T07:08:14;42.05;;;31.27;;
57599;SDS011;43426;43.594;24.334;2023-03-23T07:10:39;42.22;;;32.15;;
57599;SDS011;43426;43.594;24.334;2023-03-23T07:13:05;38.67;;;28.85;;
57599;SDS011;43426;43.594;24.334;2023-03-23T07:15:30;40.88;;;30.17;;
57599;SDS011;43426;43.594;24.334;2023-03-23T07:17:56;36.15;;;27.98;;
57599;SDS011;43426;43.594;24.334;2023-03-23T07:20:22;39.75;;;28.95;;
57599;SDS011;43426;43.594;24.334;2023-03-23T07:22:47;42.83;;;26.85;;
57599;SDS011;43426;43.594;24.334;2023-03-23T07:25:13;38.83;;;27.42;;
57599;SDS011;43426;43.594;24.334;2023-03-23T07:27:38;36.92;;;28.08;;
57599;SDS011;43426;43.594;24.334;2023-03-23T07:30:04;36.00;;;26.65;;
57599;SDS011;43426;43.594;24.334;2023-03-23T07:32:30;40.20;;;29.58;;
57599;SDS011;43426;43.594;24.334;2023-03-23T07:34:56;40.67;;;30.60;;
57599;SDS011;43426;43.594;24.334;2023-03-23T07:37:21;41.95;;;29.75;;
57599;SDS011;43426;43.594;24.334;2023-03-23T07:39:47;40.03;;;29.38;;
57599;SDS011;43426;43.594;24.334;2023-03-23T07:42:13;44.10;;;31.92;;
57599;SDS011;43426;43.594;24.334;2023-03-23T07:44:38;45.67;;;33.42;;
57599;SDS011;43426;43.594;24.334;2023-03-23T07:47:04;55.42;;;35.30;;
57599;SDS011;43426;43.594;24.334;2023-03-23T07:49:29;59.30;;;36.78;;
57599;SDS011;43426;43.594;24.334;2023-03-23T07:54:21;43.92;;;31.90;;
57599;SDS011;43426;43.594;24.334;2023-03-23T07:56:46;45.45;;;31.50;;
57599;SDS011;43426;43.594;24.334;2023-03-23T07:59:12;40.38;;;29.73;;
57599;SDS011;43426;43.594;24.334;2023-03-23T08:01:38;38.10;;;29.80;;
57599;SDS011;43426;43.594;24.334;2023-03-23T08:06:31;39.28;;;28.83;;
57599;SDS011;43426;43.594;24.334;2023-03-23T08:08:58;36.85;;;27.98;;
57599;SDS011;43426;43.594;24.334;2023-03-23T08:11:25;40.35;;;28.88;;
57599;SDS011;43426;43.594;24.334;2023-03-23T08:13:50;39.20;;;29.50;;
57599;SDS011;43426;43.594;24.334;2023-03-23T08:16:16;41.53;;;29.13;;
57599;SDS011;43426;43.594;24.334;2023-03-23T08:18:41;37.75;;;29.77;;
57599;SDS011;43426;43.594;24.334;2023-03-23T08:21:07;41.75;;;30.95;;
57599;SDS011;43426;43.594;24.334;2023-03-23T08:23:34;38.35;;;28.38;;
57599;SDS011;43426;43.594;24.334;2023-03-23T08:26:01;44.70;;;34.42;;
57599;SDS011;43426;43.594;24.334;2023-03-23T08:28:28;58.80;;;42.33;;
57599;SDS011;43426;43.594;24.334;2023-03-23T08:30:54;36.53;;;28.50;;
57599;SDS011;43426;43.594;24.334;2023-03-23T08:33:19;37.45;;;27.73;;
57599;SDS011;43426;43.594;24.334;2023-03-23T08:35:53;35.97;;;28.13;;
57599;SDS011;43426;43.594;24.334;2023-03-23T08:38:19;33.95;;;26.85;;
57599;SDS011;43426;43.594;24.334;2023-03-23T08:40:46;35.63;;;26.85;;
57599;SDS011;43426;43.594;24.334;2023-03-23T08:43:12;34.47;;;26.58;;
57599;SDS011;43426;43.594;24.334;2023-03-23T08:45:38;34.00;;;27.65;;
57599;SDS011;43426;43.594;24.334;2023-03-23T08:48:04;31.05;;;25.67;;
57599;SDS011;43426;43.594;24.334;2023-03-23T08:50:30;31.48;;;26.20;;
57599;SDS011;43426;43.594;24.334;2023-03-23T08:52:55;30.42;;;24.70;;
57599;SDS011;43426;43.594;24.334;2023-03-23T08:55:21;28.45;;;23.83;;
57599;SDS011;43426;43.594;24.334;2023-03-23T08:57:48;28.00;;;24.13;;
57599;SDS011;43426;43.594;24.334;2023-03-23T09:00:15;27.65;;;24.52;;
57599;SDS011;43426;43.594;24.334;2023-03-23T09:02:46;26.88;;;23.55;;
57599;SDS011;43426;43.594;24.334;2023-03-23T09:05:17;26.58;;;23.63;;
57599;SDS011;43426;43.594;24.334;2023-03-23T09:07:46;26.73;;;21.73;;
57599;SDS011;43426;43.594;24.334;2023-03-23T09:10:13;25.20;;;21.85;;
57599;SDS011;43426;43.594;24.334;2023-03-23T09:12:40;29.08;;;24.90;;
57599;SDS011;43426;43.594;24.334;2023-03-23T09:15:07;31.52;;;26.38;;
57599;SDS011;43426;43.594;24.334;2023-03-23T09:17:35;35.63;;;26.27;;
57599;SDS011;43426;43.594;24.334;2023-03-23T09:20:01;27.75;;;23.67;;
57599;SDS011;43426;43.594;24.334;2023-03-23T09:22:32;29.63;;;24.55;;
57599;SDS011;43426;43.594;24.334;2023-03-23T09:27:22;37.10;;;29.00;;
57599;SDS011;43426;43.594;24.334;2023-03-23T09:32:14;44.17;;;31.42;;
57599;SDS011;43426;43.594;24.334;2023-03-23T09:34:40;39.05;;;29.73;;
57599;SDS011;43426;43.594;24.334;2023-03-23T09:39:31;37.15;;;28.55;;
57599;SDS011;43426;43.594;24.334;2023-03-23T09:47:37;29.15;;;24.45;;
57599;SDS011;43426;43.594;24.334;2023-03-23T09:50:11;25.80;;;22.63;;
57599;SDS011;43426;43.594;24.334;2023-03-23T09:52:56;26.13;;;22.10;;
57599;SDS011;43426;43.594;24.334;2023-03-23T09:55:27;26.42;;;21.58;;
57599;SDS011;43426;43.594;24.334;2023-03-23T09:58:02;27.52;;;21.58;;
57599;SDS011;43426;43.594;24.334;2023-03-23T10:00:36;24.65;;;21.45;;
57599;SDS011;43426;43.594;24.334;2023-03-23T10:03:22;24.70;;;21.33;;
57599;SDS011;43426;43.594;24.334;2023-03-23T10:05:53;24.90;;;22.17;;
57599;SDS011;43426;43.594;24.334;2023-03-23T10:08:54;27.20;;;22.73;;
57599;SDS011;43426;43.594;24.334;2023-03-23T10:14:06;34.10;;;25.88;;
57599;SDS011;43426;43.594;24.334;2023-03-23T10:22:10;25.83;;;22.08;;
57599;SDS011;43426;43.594;24.334;2023-03-23T10:27:31;27.98;;;23.73;;
57599;SDS011;43426;43.594;24.334;2023-03-23T10:30:13;28.15;;;22.73;;
57599;SDS011;43426;43.594;24.334;2023-03-23T10:32:41;24.00;;;21.42;;
57599;SDS011;43426;43.594;24.334;2023-03-23T10:35:13;23.27;;;20.80;;
57599;SDS011;43426;43.594;24.334;2023-03-23T10:37:53;23.55;;;20.98;;
57599;SDS011;43426;43.594;24.334;2023-03-23T10:40:27;22.73;;;20.25;;
57599;SDS011;43426;43.594;24.334;2023-03-23T10:42:54;24.58;;;21.50;;
57599;SDS011;43426;43.594;24.334;2023-03-23T10:45:23;24.83;;;22.05;;
57599;SDS011;43426;43.594;24.334;2023-03-23T10:50:32;28.67;;;21.23;;
57599;SDS011;43426;43.594;24.334;2023-03-23T10:53:00;26.75;;;21.83;;
57599;SDS011;43426;43.594;24.334;2023-03-23T10:55:38;29.45;;;22.20;;
57599;SDS011;43426;43.594;24.334;2023-03-23T10:58:12;24.40;;;21.35;;
57599;SDS011;43426;43.594;24.334;2023-03-23T11:00:48;25.52;;;21.55;;
57599;SDS011;43426;43.594;24.334;2023-03-23T11:05:50;22.50;;;20.10;;
57599;SDS011;43426;43.594;24.334;2023-03-23T11:08:19;22.27;;;19.98;;
57599;SDS011;43426;43.594;24.334;2023-03-23T11:10:50;27.70;;;21.23;;
57599;SDS011;43426;43.594;24.334;2023-03-23T11:13:18;25.73;;;21.60;;
57599;SDS011;43426;43.594;24.334;2023-03-23T11:15:46;23.33;;;20.85;;
57599;SDS011;43426;43.594;24.334;2023-03-23T11:18:18;22.90;;;19.70;;
57599;SDS011;43426;43.594;24.334;2023-03-23T11:23:22;21.63;;;19.42;;
57599;SDS011;43426;43.594;24.334;2023-03-23T11:28:27;20.80;;;18.60;;
57599;SDS011;43426;43.594;24.334;2023-03-23T11:30:57;23.45;;;19.88;;
57599;SDS011;43426;43.594;24.334;2023-03-23T11:33:24;20.73;;;18.55;;
57599;SDS011;43426;43.594;24.334;2023-03-23T11:35:53;21.20;;;18.92;;
57599;SDS011;43426;43.594;24.334;2023-03-23T11:38:20;20.25;;;18.15;;
57599;SDS011;43426;43.594;24.334;2023-03-23T11:40:51;20.83;;;18.38;;
57599;SDS011;43426;43.594;24.334;2023-03-23T11:43:19;20.30;;;18.30;;
57599;SDS011;43426;43.594;24.334;2023-03-23T11:45:56;20.85;;;18.75;;
57599;SDS011;43426;43.594;24.334;2023-03-23T11:48:49;18.52;;;16.73;;
57599;SDS011;43426;43.594;24.334;2023-03-23T11:56:39;18.55;;;16.73;;
57599;SDS011;43426;43.594;24.334;2023-03-23T11:59:10;19.60;;;17.65;;
57599;SDS011;43426;43.594;24.334;2023-03-23T12:09:47;20.95;;;18.38;;
57599;SDS011;43426;43.594;24.334;2023-03-23T12:15:34;21.05;;;18.90;;
57599;SDS011;43426;43.594;24.334;2023-03-23T12:21:21;25.60;;;21.90;;
57599;SDS011;43426;43.594;24.334;2023-03-23T12:30:11;22.83;;;20.42;;
57599;SDS011;43426;43.594;24.334;2023-03-23T12:32:50;22.05;;;19.73;;
57599;SDS011;43426;43.594;24.334;2023-03-23T12:38:15;21.02;;;19.00;;
57599;SDS011;43426;43.594;24.334;2023-03-23T12:40:50;20.65;;;18.65;;
57599;SDS011;43426;43.594;24.334;2023-03-23T12:51:45;21.20;;;15.70;;
57599;SDS011;43426;43.594;24.334;2023-03-23T12:54:19;16.55;;;15.10;;
57599;SDS011;43426;43.594;24.334;2023-03-23T13:02:30;17.60;;;15.93;;
57599;SDS011;43426;43.594;24.334;2023-03-23T13:05:40;17.02;;;15.38;;
57599;SDS011;43426;43.594;24.334;2023-03-23T13:07:48;17.38;;;15.77;;
57599;SDS011;43426;43.594;24.334;2023-03-23T13:10:40;17.75;;;15.93;;
57599;SDS011;43426;43.594;24.334;2023-03-23T13:13:14;19.77;;;17.70;;
57599;SDS011;43426;43.594;24.334;2023-03-23T13:18:37;18.90;;;17.05;;
57599;SDS011;43426;43.594;24.334;2023-03-23T13:24:04;17.02;;;15.25;;
57599;SDS011;43426;43.594;24.334;2023-03-23T13:26:37;16.63;;;15.13;;
57599;SDS011;43426;43.594;24.334;2023-03-23T13:29:14;16.63;;;15.05;;
57599;SDS011;43426;43.594;24.334;2023-03-23T13:31:44;15.52;;;14.10;;
57599;SDS011;43426;43.594;24.334;2023-03-23T13:36:37;15.20;;;13.77;;
57599;SDS011;43426;43.594;24.334;2023-03-23T13:39:26;14.25;;;13.05;;
57599;SDS011;43426;43.594;24.334;2023-03-23T13:57:51;15.50;;;14.00;;
57599;SDS011;43426;43.594;24.334;2023-03-23T14:10:49;15.13;;;13.82;;
57599;SDS011;43426;43.594;24.334;2023-03-23T14:16:14;13.65;;;12.45;;
57599;SDS011;43426;43.594;24.334;2023-03-23T14:18:52;12.43;;;11.25;;
57599;SDS011;43426;43.594;24.334;2023-03-23T14:21:37;12.23;;;10.75;;
57599;SDS011;43426;43.594;24.334;2023-03-23T14:24:27;12.73;;;11.60;;
57599;SDS011;43426;43.594;24.334;2023-03-23T14:29:35;12.52;;;11.38;;
57599;SDS011;43426;43.594;24.334;2023-03-23T14:32:00;11.25;;;10.35;;
57599;SDS011;43426;43.594;24.334;2023-03-23T14:34:30;10.85;;;10.05;;
57599;SDS011;43426;43.594;24.334;2023-03-23T14:36:58;13.68;;;12.27;;
57599;SDS011;43426;43.594;24.334;2023-03-23T14:39:25;12.10;;;11.13;;
57599;SDS011;43426;43.594;24.334;2023-03-23T14:41:56;12.10;;;11.20;;
57599;SDS011;43426;43.594;24.334;2023-03-23T14:44:32;12.38;;;11.27;;
57599;SDS011;43426;43.594;24.334;2023-03-23T14:47:04;11.77;;;10.77;;
57599;SDS011;43426;43.594;24.334;2023-03-23T14:49:32;12.55;;;11.50;;
57599;SDS011;43426;43.594;24.334;2023-03-23T14:52:09;12.13;;;10.95;;
57599;SDS011;43426;43.594;24.334;2023-03-23T14:54:35;12.10;;;11.02;;
57599;SDS011;43426;43.594;24.334;2023-03-23T14:57:10;13.15;;;11.82;;
57599;SDS011;43426;43.594;24.334;2023-03-23T14:59:39;12.30;;;11.20;;
57599;SDS011;43426;43.594;24.334;2023-03-23T15:02:08;11.27;;;10.38;;
57599;SDS011;43426;43.594;24.334;2023-03-23T15:04:38;11.52;;;10.63;;
57599;SDS011;43426;43.594;24.334;2023-03-23T15:07:04;11.45;;;10.35;;
57599;SDS011;43426;43.594;24.334;2023-03-23T15:09:31;10.20;;;9.50;;
57599;SDS011;43426;43.594;24.334;2023-03-23T15:11:59;11.57;;;10.68;;
57599;SDS011;43426;43.594;24.334;2023-03-23T15:14:29;10.63;;;9.82;;
57599;SDS011;43426;43.594;24.334;2023-03-23T15:16:58;11.05;;;10.15;;
57599;SDS011;43426;43.594;24.334;2023-03-23T15:19:26;10.55;;;9.68;;
57599;SDS011;43426;43.594;24.334;2023-03-23T15:22:03;11.00;;;10.20;;
57599;SDS011;43426;43.594;24.334;2023-03-23T15:24:38;11.85;;;10.95;;
57599;SDS011;43426;43.594;24.334;2023-03-23T15:27:18;11.32;;;10.32;;
57599;SDS011;43426;43.594;24.334;2023-03-23T15:29:54;11.88;;;10.98;;
57599;SDS011;43426;43.594;24.334;2023-03-23T15:32:23;11.05;;;10.13;;
57599;SDS011;43426;43.594;24.334;2023-03-23T15:34:51;11.63;;;10.73;;
57599;SDS011;43426;43.594;24.334;2023-03-23T15:37:28;11.18;;;10.15;;
57599;SDS011;43426;43.594;24.334;2023-03-23T15:39:59;10.02;;;9.32;;
57599;SDS011;43426;43.594;24.334;2023-03-23T15:42:27;11.15;;;10.30;;
57599;SDS011;43426;43.594;24.334;2023-03-23T15:45:50;11.13;;;10.05;;
57599;SDS011;43426;43.594;24.334;2023-03-23T15:47:48;10.23;;;9.23;;
57599;SDS011;43426;43.594;24.334;2023-03-23T15:50:33;9.85;;;9.15;;
57599;SDS011;43426;43.594;24.334;2023-03-23T15:53:00;10.32;;;9.50;;
57599;SDS011;43426;43.594;24.334;2023-03-23T15:55:39;9.60;;;8.90;;
57599;SDS011;43426;43.594;24.334;2023-03-23T15:58:11;9.38;;;8.68;;
57599;SDS011;43426;43.594;24.334;2023-03-23T16:00:37;12.45;;;9.77;;
57599;SDS011;43426;43.594;24.334;2023-03-23T16:03:05;10.57;;;9.88;;
57599;SDS011;43426;43.594;24.334;2023-03-23T16:05:43;10.07;;;9.27;;
57599;SDS011;43426;43.594;24.334;2023-03-23T16:08:12;10.45;;;9.27;;
57599;SDS011;43426;43.594;24.334;2023-03-23T16:10:38;10.80;;;9.82;;
57599;SDS011;43426;43.594;24.334;2023-03-23T16:13:04;10.82;;;9.95;;
57599;SDS011;43426;43.594;24.334;2023-03-23T16:15:30;10.93;;;10.05;;
57599;SDS011;43426;43.594;24.334;2023-03-23T16:17:55;14.05;;;11.75;;
57599;SDS011;43426;43.594;24.334;2023-03-23T16:20:21;13.35;;;11.35;;
57599;SDS011;43426;43.594;24.334;2023-03-23T16:22:48;11.90;;;10.93;;
57599;SDS011;43426;43.594;24.334;2023-03-23T16:25:15;12.63;;;11.63;;
57599;SDS011;43426;43.594;24.334;2023-03-23T16:27:41;14.77;;;13.27;;
57599;SDS011;43426;43.594;24.334;2023-03-23T16:30:13;20.85;;;16.38;;
57599;SDS011;43426;43.594;24.334;2023-03-23T16:32:41;26.65;;;21.17;;
57599;SDS011;43426;43.594;24.334;2023-03-23T16:37:33;50.17;;;33.33;;
57599;SDS011;43426;43.594;24.334;2023-03-23T16:40:00;49.25;;;32.20;;
57599;SDS011;43426;43.594;24.334;2023-03-23T16:42:26;50.22;;;35.50;;
57599;SDS011;43426;43.594;24.334;2023-03-23T16:47:18;34.20;;;26.33;;
57599;SDS011;43426;43.594;24.334;2023-03-23T16:49:47;33.53;;;26.23;;
57599;SDS011;43426;43.594;24.334;2023-03-23T16:54:38;29.23;;;25.60;;
57599;SDS011;43426;43.594;24.334;2023-03-23T16:59:28;61.55;;;34.67;;
57599;SDS011;43426;43.594;24.334;2023-03-23T17:04:19;31.27;;;24.05;;
57599;SDS011;43426;43.594;24.334;2023-03-23T17:09:10;36.72;;;27.52;;
57599;SDS011;43426;43.594;24.334;2023-03-23T17:14:01;34.83;;;25.83;;